sensor_id;sensor_type;location;lat;lon;timestamp;pressure;altitude;pressure_sealevel;temperature;humidity
75036;BME280;64247;51.540;5.854;2023-04-03T00:01:37;102648.44;;;-1.28;100.00
75036;BME280;64247;51.540;5.854;2023-04-03T00:03:39;102649.69;;;-1.31;100.00
75036;BME280;64247;51.540;5.854;2023-04-03T00:05:41;102647.25;;;-1.32;100.00
75036;BME280;64247;51.540;5.854;2023-04-03T00:07:42;102655.66;;;-1.35;100.00
75036;BME280;64247;51.540;5.854;2023-04-03T00:09:43;102645.47;;;-1.38;100.00
75036;BME280;64247;51.540;5.854;2023-04-03T00:11:45;102654.69;;;-1.41;100.00
75036;BME280;64247;51.540;5.854;2023-04-03T00:13:46;102653.66;;;-1.40;100.00
75036;BME280;64247;51.540;5.854;2023-04-03T00:15:47;102647.75;;;-1.42;100.00
75036;BME280;64247;51.540;5.854;2023-04-03T00:17:48;102647.78;;;-1.49;100.00
75036;BME280;64247;51.540;5.854;2023-04-03T00:19:48;102651.31;;;-1.55;100.00
75036;BME280;64247;51.540;5.854;2023-04-03T00:21:49;102658.06;;;-1.59;100.00
75036;BME280;64247;51.540;5.854;2023-04-03T00:23:51;102645.38;;;-1.64;100.00
75036;BME280;64247;51.540;5.854;2023-04-03T00:25:52;102648.50;;;-1.67;100.00
75036;BME280;64247;51.540;5.854;2023-04-03T00:27:53;102651.97;;;-1.66;100.00
75036;BME280;64247;51.540;5.854;2023-04-03T00:29:54;102655.25;;;-1.64;100.00
75036;BME280;64247;51.540;5.854;2023-04-03T00:31:56;102652.09;;;-1.54;100.00
75036;BME280;64247;51.540;5.854;2023-04-03T00:33:58;102651.84;;;-1.46;100.00
75036;BME280;64247;51.540;5.854;2023-04-03T00:35:58;102654.88;;;-1.36;100.00
75036;BME280;64247;51.540;5.854;2023-04-03T00:38:00;102655.28;;;-1.39;100.00
75036;BME280;64247;51.540;5.854;2023-04-03T00:40:02;102665.72;;;-1.37;100.00
75036;BME280;64247;51.540;5.854;2023-04-03T00:42:03;102659.63;;;-1.45;100.00
75036;BME280;64247;51.540;5.854;2023-04-03T00:45:21;102658.81;;;-1.45;100.00
75036;BME280;64247;51.540;5.854;2023-04-03T00:47:07;102658.47;;;-1.55;100.00
75036;BME280;64247;51.540;5.854;2023-04-03T00:49:10;102662.81;;;-1.61;100.00
75036;BME280;64247;51.540;5.854;2023-04-03T00:51:19;102663.19;;;-1.57;100.00
75036;BME280;64247;51.540;5.854;2023-04-03T00:53:37;102662.91;;;-1.49;100.00
75036;BME280;64247;51.540;5.854;2023-04-03T00:55:42;102654.34;;;-1.51;100.00
75036;BME280;64247;51.540;5.854;2023-04-03T00:57:45;102661.19;;;-1.62;100.00
75036;BME280;64247;51.540;5.854;2023-04-03T00:59:51;102665.66;;;-1.63;100.00
75036;BME280;64247;51.540;5.854;2023-04-03T01:01:58;102665.66;;;-1.63;100.00
75036;BME280;64247;51.540;5.854;2023-04-03T01:04:03;102668.94;;;-1.61;100.00
75036;BME280;64247;51.540;5.854;2023-04-03T01:06:06;102669.56;;;-1.58;100.00
75036;BME280;64247;51.540;5.854;2023-04-03T01:08:08;102665.88;;;-1.57;100.00
75036;BME280;64247;51.540;5.854;2023-04-03T01:10:10;102669.97;;;-1.62;100.00
75036;BME280;64247;51.540;5.854;2023-04-03T01:12:35;102675.13;;;-1.67;100.00
75036;BME280;64247;51.540;5.854;2023-04-03T01:14:40;102681.25;;;-1.66;100.00
75036;BME280;64247;51.540;5.854;2023-04-03T01:16:41;102669.19;;;-1.69;100.00
75036;BME280;64247;51.540;5.854;2023-04-03T01:18:42;102666.75;;;-1.77;100.00
75036;BME280;64247;51.540;5.854;2023-04-03T01:24:44;102676.00;;;-1.80;100.00
75036;BME280;64247;51.540;5.854;2023-04-03T01:26:27;102679.47;;;-1.79;100.00
75036;BME280;64247;51.540;5.854;2023-04-03T01:28:32;102664.94;;;-1.77;100.00
75036;BME280;64247;51.540;5.854;2023-04-03T01:33:18;102677.41;;;-1.77;100.00
75036;BME280;64247;51.540;5.854;2023-04-03T01:35:22;102680.53;;;-1.80;100.00
75036;BME280;64247;51.540;5.854;2023-04-03T01:37:23;102678.88;;;-1.81;100.00
75036;BME280;64247;51.540;5.854;2023-04-03T01:39:24;102677.84;;;-1.80;100.00
75036;BME280;64247;51.540;5.854;2023-04-03T01:41:26;102680.09;;;-1.84;100.00
75036;BME280;64247;51.540;5.854;2023-04-03T01:43:34;102682.38;;;-1.87;100.00
75036;BME280;64247;51.540;5.854;2023-04-03T01:45:34;102684.22;;;-1.88;100.00
75036;BME280;64247;51.540;5.854;2023-04-03T01:47:35;102676.66;;;-1.91;100.00
75036;BME280;64247;51.540;5.854;2023-04-03T01:49:36;102678.50;;;-1.92;100.00
75036;BME280;64247;51.540;5.854;2023-04-03T01:51:37;102671.97;;;-1.96;100.00
75036;BME280;64247;51.540;5.854;2023-04-03T01:53:38;102673.41;;;-2.00;100.00
75036;BME280;64247;51.540;5.854;2023-04-03T01:55:39;102678.13;;;-2.02;100.00
75036;BME280;64247;51.540;5.854;2023-04-03T01:57:40;102677.31;;;-2.02;100.00
75036;BME280;64247;51.540;5.854;2023-04-03T01:59:42;102679.16;;;-2.03;100.00
75036;BME280;64247;51.540;5.854;2023-04-03T02:01:43;102690.63;;;-2.02;100.00
75036;BME280;64247;51.540;5.854;2023-04-03T02:03:45;102686.31;;;-1.97;100.00
75036;BME280;64247;51.540;5.854;2023-04-03T02:05:46;102688.13;;;-1.97;100.00
75036;BME280;64247;51.540;5.854;2023-04-03T02:07:48;102681.19;;;-1.98;100.00
75036;BME280;64247;51.540;5.854;2023-04-03T02:09:49;102691.00;;;-1.92;100.00
75036;BME280;64247;51.540;5.854;2023-04-03T02:11:50;102687.72;;;-1.94;100.00
75036;BME280;64247;51.540;5.854;2023-04-03T02:13:51;102685.69;;;-1.99;100.00
75036;BME280;64247;51.540;5.854;2023-04-03T02:15:52;102690.63;;;-2.02;100.00
75036;BME280;64247;51.540;5.854;2023-04-03T02:17:53;102684.69;;;-2.04;100.00
75036;BME280;64247;51.540;5.854;2023-04-03T02:19:55;102694.72;;;-2.07;100.00
75036;BME280;64247;51.540;5.854;2023-04-03T02:21:57;102693.09;;;-2.08;100.00
75036;BME280;64247;51.540;5.854;2023-04-03T02:23:58;102695.78;;;-2.08;100.00
75036;BME280;64247;51.540;5.854;2023-04-03T02:26:17;102698.38;;;-2.01;100.00
75036;BME280;64247;51.540;5.854;2023-04-03T02:28:19;102692.44;;;-1.96;100.00
75036;BME280;64247;51.540;5.854;2023-04-03T02:30:20;102694.69;;;-1.93;100.00
75036;BME280;64247;51.540;5.854;2023-04-03T02:32:21;102697.75;;;-1.89;100.00
75036;BME280;64247;51.540;5.854;2023-04-03T02:34:22;102702.44;;;-1.85;100.00
75036;BME280;64247;51.540;5.854;2023-04-03T02:36:24;102697.06;;;-1.78;100.00
75036;BME280;64247;51.540;5.854;2023-04-03T02:38:29;102698.69;;;-1.70;100.00
75036;BME280;64247;51.540;5.854;2023-04-03T02:40:30;102702.16;;;-1.63;100.00
75036;BME280;64247;51.540;5.854;2023-04-03T02:42:31;102699.81;;;-1.53;100.00
75036;BME280;64247;51.540;5.854;2023-04-03T02:44:32;102700.19;;;-1.42;100.00
75036;BME280;64247;51.540;5.854;2023-04-03T02:46:33;102703.25;;;-1.39;100.00
75036;BME280;64247;51.540;5.854;2023-04-03T02:48:34;102703.41;;;-1.34;100.00
75036;BME280;64247;51.540;5.854;2023-04-03T02:50:35;102699.69;;;-1.26;100.00
75036;BME280;64247;51.540;5.854;2023-04-03T02:52:36;102704.53;;;-1.16;100.00
75036;BME280;64247;51.540;5.854;2023-04-03T02:54:37;102701.63;;;-1.08;100.00
75036;BME280;64247;51.540;5.854;2023-04-03T02:56:41;102703.22;;;-1.00;100.00
75036;BME280;64247;51.540;5.854;2023-04-03T02:58:43;102703.38;;;-0.95;100.00
75036;BME280;64247;51.540;5.854;2023-04-03T03:00:44;102707.44;;;-0.92;100.00
75036;BME280;64247;51.540;5.854;2023-04-03T03:02:45;102710.13;;;-0.92;100.00
75036;BME280;64247;51.540;5.854;2023-04-03T03:04:46;102707.44;;;-0.92;100.00
75036;BME280;64247;51.540;5.854;2023-04-03T03:06:47;102703.16;;;-0.93;100.00
75036;BME280;64247;51.540;5.854;2023-04-03T03:08:48;102692.94;;;-0.97;100.00
75036;BME280;64247;51.540;5.854;2023-04-03T03:10:49;102703.78;;;-0.98;100.00
75036;BME280;64247;51.540;5.854;2023-04-03T03:12:51;102709.34;;;-1.00;100.00
75036;BME280;64247;51.540;5.854;2023-04-03T03:14:52;102705.88;;;-1.00;100.00
75036;BME280;64247;51.540;5.854;2023-04-03T03:16:53;102697.88;;;-1.00;100.00
75036;BME280;64247;51.540;5.854;2023-04-03T03:18:54;102705.66;;;-0.99;100.00
75036;BME280;64247;51.540;5.854;2023-04-03T03:20:58;102700.31;;;-0.99;100.00
75036;BME280;64247;51.540;5.854;2023-04-03T03:23:00;102701.13;;;-0.98;100.00
75036;BME280;64247;51.540;5.854;2023-04-03T03:25:01;102705.44;;;-0.97;100.00
75036;BME280;64247;51.540;5.854;2023-04-03T03:27:04;102712.16;;;-0.94;100.00
75036;BME280;64247;51.540;5.854;2023-04-03T03:29:05;102702.53;;;-0.96;100.00
75036;BME280;64247;51.540;5.854;2023-04-03T03:31:07;102704.03;;;-1.00;100.00
75036;BME280;64247;51.540;5.854;2023-04-03T03:33:11;102707.31;;;-1.04;100.00
75036;BME280;64247;51.540;5.854;2023-04-03T03:35:12;102708.19;;;-1.10;100.00
75036;BME280;64247;51.540;5.854;2023-04-03T03:37:13;102711.28;;;-1.14;100.00
75036;BME280;64247;51.540;5.854;2023-04-03T03:39:14;102714.59;;;-1.18;100.00
75036;BME280;64247;51.540;5.854;2023-04-03T03:41:15;102708.06;;;-1.22;100.00
75036;BME280;64247;51.540;5.854;2023-04-03T03:43:18;102722.88;;;-1.26;100.00
75036;BME280;64247;51.540;5.854;2023-04-03T03:45:21;102718.56;;;-1.28;100.00
75036;BME280;64247;51.540;5.854;2023-04-03T03:47:22;102726.34;;;-1.26;100.00
75036;BME280;64247;51.540;5.854;2023-04-03T03:49:23;102720.41;;;-1.28;100.00
75036;BME280;64247;51.540;5.854;2023-04-03T03:51:24;102720.84;;;-1.31;100.00
75036;BME280;64247;51.540;5.854;2023-04-03T03:53:25;102725.78;;;-1.35;100.00
75036;BME280;64247;51.540;5.854;2023-04-03T03:55:29;102727.84;;;-1.37;100.00
75036;BME280;64247;51.540;5.854;2023-04-03T03:57:32;102729.50;;;-1.42;100.00
75036;BME280;64247;51.540;5.854;2023-04-03T03:59:33;102728.72;;;-1.50;100.00
75036;BME280;64247;51.540;5.854;2023-04-03T04:01:34;102726.69;;;-1.54;100.00
75036;BME280;64247;51.540;5.854;2023-04-03T04:03:36;102735.91;;;-1.57;100.00
75036;BME280;64247;51.540;5.854;2023-04-03T04:05:37;102740.22;;;-1.63;100.00
75036;BME280;64247;51.540;5.854;2023-04-03T04:07:38;102729.41;;;-1.68;100.00
75036;BME280;64247;51.540;5.854;2023-04-03T04:09:40;102732.69;;;-1.72;100.00
75036;BME280;64247;51.540;5.854;2023-04-03T04:11:42;102724.31;;;-1.76;100.00
75036;BME280;64247;51.540;5.854;2023-04-03T04:13:46;102728.84;;;-1.77;100.00
75036;BME280;64247;51.540;5.854;2023-04-03T04:15:48;102730.44;;;-1.76;100.00
75036;BME280;64247;51.540;5.854;2023-04-03T04:17:51;102735.38;;;-1.79;100.00
75036;BME280;64247;51.540;5.854;2023-04-03T04:19:52;102728.63;;;-1.82;100.00
75036;BME280;64247;51.540;5.854;2023-04-03T04:21:53;102731.72;;;-1.85;100.00
75036;BME280;64247;51.540;5.854;2023-04-03T04:23:54;102737.47;;;-1.88;100.00
75036;BME280;64247;51.540;5.854;2023-04-03T04:25:55;102736.03;;;-1.91;100.00
75036;BME280;64247;51.540;5.854;2023-04-03T04:27:57;102733.59;;;-1.92;100.00
75036;BME280;64247;51.540;5.854;2023-04-03T04:29:59;102735.81;;;-1.89;100.00
75036;BME280;64247;51.540;5.854;2023-04-03T04:32:05;102728.22;;;-1.85;100.00
75036;BME280;64247;51.540;5.854;2023-04-03T04:34:06;102727.44;;;-1.86;100.00
75036;BME280;64247;51.540;5.854;2023-04-03T04:36:07;102738.28;;;-1.87;100.00
75036;BME280;64247;51.540;5.854;2023-04-03T04:38:09;102739.09;;;-1.87;100.00
75036;BME280;64247;51.540;5.854;2023-04-03T04:40:11;102735.03;;;-1.89;100.00
75036;BME280;64247;51.540;5.854;2023-04-03T04:42:13;102740.13;;;-1.95;100.00
75036;BME280;64247;51.540;5.854;2023-04-03T04:44:15;102734.84;;;-2.01;100.00
75036;BME280;64247;51.540;5.854;2023-04-03T04:46:17;102738.53;;;-2.02;100.00
75036;BME280;64247;51.540;5.854;2023-04-03T04:48:23;102742.63;;;-2.00;100.00
75036;BME280;64247;51.540;5.854;2023-04-03T04:50:24;102739.94;;;-2.00;100.00
75036;BME280;64247;51.540;5.854;2023-04-03T04:52:25;102743.84;;;-2.02;100.00
75036;BME280;64247;51.540;5.854;2023-04-03T04:54:26;102750.19;;;-2.03;100.00
75036;BME280;64247;51.540;5.854;2023-04-03T04:56:27;102757.38;;;-2.04;100.00
75036;BME280;64247;51.540;5.854;2023-04-03T04:58:30;102758.19;;;-2.03;100.00
75036;BME280;64247;51.540;5.854;2023-04-03T05:00:32;102755.50;;;-1.97;100.00
75036;BME280;64247;51.540;5.854;2023-04-03T05:02:33;102757.34;;;-1.91;100.00
75036;BME280;64247;51.540;5.854;2023-04-03T05:04:34;102755.69;;;-1.85;100.00
75036;BME280;64247;51.540;5.854;2023-04-03T05:06:41;102754.00;;;-1.79;100.00
75036;BME280;64247;51.540;5.854;2023-04-03T05:08:47;102752.16;;;-1.72;100.00
75036;BME280;64247;51.540;5.854;2023-04-03T05:10:48;102757.06;;;-1.69;100.00
75036;BME280;64247;51.540;5.854;2023-04-03T05:12:50;102763.41;;;-1.63;100.00
75036;BME280;64247;51.540;5.854;2023-04-03T05:14:51;102761.13;;;-1.60;100.00
75036;BME280;64247;51.540;5.854;2023-04-03T05:16:52;102763.34;;;-1.56;100.00
75036;BME280;64247;51.540;5.854;2023-04-03T05:18:56;102766.81;;;-1.49;100.00
75036;BME280;64247;51.540;5.854;2023-04-03T05:20:57;102765.16;;;-1.44;100.00
75036;BME280;64247;51.540;5.854;2023-04-03T05:23:00;102773.34;;;-1.38;100.00
75036;BME280;64247;51.540;5.854;2023-04-03T05:25:01;102772.09;;;-1.36;100.00
75036;BME280;64247;51.540;5.854;2023-04-03T05:27:02;102775.75;;;-1.30;100.00
75036;BME280;64247;51.540;5.854;2023-04-03T05:29:04;102781.88;;;-1.23;100.00
75036;BME280;64247;51.540;5.854;2023-04-03T05:31:05;102776.09;;;-1.13;100.00
75036;BME280;64247;51.540;5.854;2023-04-03T05:33:10;102777.66;;;-1.05;100.00
75036;BME280;64247;51.540;5.854;2023-04-03T05:35:18;102780.91;;;-0.97;100.00
75036;BME280;64247;51.540;5.854;2023-04-03T05:37:21;102773.88;;;-0.91;100.00
75036;BME280;64247;51.540;5.854;2023-04-03T05:39:24;102779.19;;;-0.84;100.00
75036;BME280;64247;51.540;5.854;2023-04-03T05:41:26;102773.19;;;-0.80;100.00
75036;BME280;64247;51.540;5.854;2023-04-03T05:43:27;102775.84;;;-0.73;100.00
75036;BME280;64247;51.540;5.854;2023-04-03T05:45:28;102779.69;;;-0.69;100.00
75036;BME280;64247;51.540;5.854;2023-04-03T05:47:31;102772.44;;;-0.61;100.00
75036;BME280;64247;51.540;5.854;2023-04-03T05:49:32;102781.06;;;-0.59;100.00
75036;BME280;64247;51.540;5.854;2023-04-03T05:51:36;102777.75;;;-0.55;100.00
75036;BME280;64247;51.540;5.854;2023-04-03T05:53:45;102786.50;;;-0.47;100.00
75036;BME280;64247;51.540;5.854;2023-04-03T05:55:48;102783.34;;;-0.38;100.00
75036;BME280;64247;51.540;5.854;2023-04-03T05:57:49;102788.63;;;-0.31;100.00
75036;BME280;64247;51.540;5.854;2023-04-03T05:59:50;102792.88;;;-0.23;100.00
75036;BME280;64247;51.540;5.854;2023-04-03T06:01:52;102800.00;;;-0.17;100.00
75036;BME280;64247;51.540;5.854;2023-04-03T06:03:53;102788.66;;;-0.12;100.00
75036;BME280;64247;51.540;5.854;2023-04-03T06:05:55;102788.13;;;-0.03;100.00
75036;BME280;64247;51.540;5.854;2023-04-03T06:07:55;102789.97;;;0.04;100.00
75036;BME280;64247;51.540;5.854;2023-04-03T06:09:57;102791.88;;;0.15;100.00
75036;BME280;64247;51.540;5.854;2023-04-03T06:11:58;102799.59;;;0.23;100.00
75036;BME280;64247;51.540;5.854;2023-04-03T06:14:01;102796.03;;;0.29;100.00
75036;BME280;64247;51.540;5.854;2023-04-03T06:16:04;102794.34;;;0.35;100.00
75036;BME280;64247;51.540;5.854;2023-04-03T06:18:06;102799.97;;;0.45;100.00
75036;BME280;64247;51.540;5.854;2023-04-03T06:20:09;102799.28;;;0.50;100.00
75036;BME280;64247;51.540;5.854;2023-04-03T06:22:10;102804.13;;;0.60;100.00
75036;BME280;64247;51.540;5.854;2023-04-03T06:24:14;102804.38;;;0.70;100.00
75036;BME280;64247;51.540;5.854;2023-04-03T06:26:17;102811.06;;;0.79;100.00
75036;BME280;64247;51.540;5.854;2023-04-03T06:28:17;102808.06;;;0.88;100.00
75036;BME280;64247;51.540;5.854;2023-04-03T06:30:19;102810.00;;;0.99;100.00
75036;BME280;64247;51.540;5.854;2023-04-03T06:32:20;102810.03;;;1.11;100.00
75036;BME280;64247;51.540;5.854;2023-04-03T06:34:21;102810.88;;;1.23;100.00
75036;BME280;64247;51.540;5.854;2023-04-03T06:36:22;102810.91;;;1.35;100.00
75036;BME280;64247;51.540;5.854;2023-04-03T06:38:23;102810.69;;;1.49;100.00
75036;BME280;64247;51.540;5.854;2023-04-03T06:40:25;102808.97;;;1.54;100.00
75036;BME280;64247;51.540;5.854;2023-04-03T06:42:26;102817.47;;;1.63;100.00
75036;BME280;64247;51.540;5.854;2023-04-03T06:44:41;102815.28;;;1.72;100.00
75036;BME280;64247;51.540;5.854;2023-04-03T06:46:42;102819.34;;;1.86;100.00
75036;BME280;64247;51.540;5.854;2023-04-03T06:48:44;102818.88;;;2.01;100.00
75036;BME280;64247;51.540;5.854;2023-04-03T06:50:45;102820.13;;;2.22;100.00
75036;BME280;64247;51.540;5.854;2023-04-03T06:52:46;102823.25;;;2.43;100.00
75036;BME280;64247;51.540;5.854;2023-04-03T06:54:47;102819.91;;;2.65;100.00
75036;BME280;64247;51.540;5.854;2023-04-03T06:56:48;102826.16;;;2.82;99.29
75036;BME280;64247;51.540;5.854;2023-04-03T06:58:49;102830.63;;;3.06;98.17
75036;BME280;64247;51.540;5.854;2023-04-03T07:00:51;102827.47;;;3.26;96.48
75036;BME280;64247;51.540;5.854;2023-04-03T07:02:52;102839.97;;;3.49;94.26
75036;BME280;64247;51.540;5.854;2023-04-03T07:04:53;102822.78;;;3.67;93.61
75036;BME280;64247;51.540;5.854;2023-04-03T07:06:55;102834.59;;;3.83;91.88
75036;BME280;64247;51.540;5.854;2023-04-03T07:08:56;102834.81;;;3.99;91.43
75036;BME280;64247;51.540;5.854;2023-04-03T07:10:57;102838.28;;;4.16;89.94
75036;BME280;64247;51.540;5.854;2023-04-03T07:12:58;102845.66;;;4.26;90.18
75036;BME280;64247;51.540;5.854;2023-04-03T07:14:59;102843.75;;;4.43;89.19
75036;BME280;64247;51.540;5.854;2023-04-03T07:17:00;102841.38;;;4.69;86.81
75036;BME280;64247;51.540;5.854;2023-04-03T07:19:01;102843.72;;;4.88;85.52
75036;BME280;64247;51.540;5.854;2023-04-03T07:21:03;102849.41;;;5.14;83.55
75036;BME280;64247;51.540;5.854;2023-04-03T07:23:04;102845.97;;;5.23;84.76
75036;BME280;64247;51.540;5.854;2023-04-03T07:25:06;102844.00;;;5.41;82.41
75036;BME280;64247;51.540;5.854;2023-04-03T07:27:08;102848.19;;;5.59;81.85
75036;BME280;64247;51.540;5.854;2023-04-03T07:29:09;102851.56;;;5.77;80.60
75036;BME280;64247;51.540;5.854;2023-04-03T07:31:11;102850.03;;;5.91;81.69
75036;BME280;64247;51.540;5.854;2023-04-03T07:33:18;102854.44;;;6.02;80.98
75036;BME280;64247;51.540;5.854;2023-04-03T07:35:21;102856.41;;;6.12;79.73
75036;BME280;64247;51.540;5.854;2023-04-03T07:37:22;102851.06;;;6.23;78.83
75036;BME280;64247;51.540;5.854;2023-04-03T07:39:23;102853.53;;;6.29;79.99
75036;BME280;64247;51.540;5.854;2023-04-03T07:41:24;102860.56;;;6.36;78.66
75036;BME280;64247;51.540;5.854;2023-04-03T07:43:25;102859.28;;;6.43;77.52
75036;BME280;64247;51.540;5.854;2023-04-03T07:45:26;102864.66;;;6.43;77.27
75036;BME280;64247;51.540;5.854;2023-04-03T07:47:27;102860.88;;;6.44;76.28
75036;BME280;64247;51.540;5.854;2023-04-03T07:49:28;102868.19;;;6.49;75.69
75036;BME280;64247;51.540;5.854;2023-04-03T07:51:29;102862.25;;;6.47;74.05
75036;BME280;64247;51.540;5.854;2023-04-03T07:53:31;102862.25;;;6.47;75.41
75036;BME280;64247;51.540;5.854;2023-04-03T07:55:33;102864.91;;;6.42;76.35
75036;BME280;64247;51.540;5.854;2023-04-03T07:57:37;102871.66;;;6.44;75.40
75036;BME280;64247;51.540;5.854;2023-04-03T07:59:38;102865.19;;;6.45;76.17
75036;BME280;64247;51.540;5.854;2023-04-03T08:01:40;102870.38;;;6.52;74.68
75036;BME280;64247;51.540;5.854;2023-04-03T08:03:40;102870.94;;;6.59;74.84
75036;BME280;64247;51.540;5.854;2023-04-03T08:05:43;102870.44;;;6.62;71.74
75036;BME280;64247;51.540;5.854;2023-04-03T08:07:47;102862.03;;;6.59;71.07
75036;BME280;64247;51.540;5.854;2023-04-03T08:09:48;102871.72;;;6.55;70.88
75036;BME280;64247;51.540;5.854;2023-04-03T08:11:49;102872.78;;;6.48;72.25
75036;BME280;64247;51.540;5.854;2023-04-03T08:13:53;102870.09;;;6.48;72.36
75036;BME280;64247;51.540;5.854;2023-04-03T08:15:54;102868.75;;;6.51;71.08
75036;BME280;64247;51.540;5.854;2023-04-03T08:17:58;102867.13;;;6.50;70.80
75036;BME280;64247;51.540;5.854;2023-04-03T08:20:02;102873.63;;;6.54;70.36
75036;BME280;64247;51.540;5.854;2023-04-03T08:22:05;102866.06;;;6.56;69.80
75036;BME280;64247;51.540;5.854;2023-04-03T08:24:07;102877.69;;;6.57;69.84
75036;BME280;64247;51.540;5.854;2023-04-03T08:26:14;102872.03;;;6.63;69.93
75036;BME280;64247;51.540;5.854;2023-04-03T08:28:17;102877.19;;;6.70;68.13
75036;BME280;64247;51.540;5.854;2023-04-03T08:30:18;102883.66;;;6.74;67.74
75036;BME280;64247;51.540;5.854;2023-04-03T08:32:19;102869.66;;;6.77;67.13
75036;BME280;64247;51.540;5.854;2023-04-03T08:34:19;102878.88;;;6.87;65.47
75036;BME280;64247;51.540;5.854;2023-04-03T08:36:23;102874.28;;;6.87;64.24
75036;BME280;64247;51.540;5.854;2023-04-03T08:38:26;102871.06;;;6.90;65.23
75036;BME280;64247;51.540;5.854;2023-04-03T08:40:27;102869.16;;;6.91;66.42
75036;BME280;64247;51.540;5.854;2023-04-03T08:48:39;102878.09;;;7.02;67.44
75036;BME280;64247;51.540;5.854;2023-04-03T08:50:41;102871.13;;;7.16;65.47
75036;BME280;64247;51.540;5.854;2023-04-03T08:52:56;102872.22;;;7.31;62.71
75036;BME280;64247;51.540;5.854;2023-04-03T08:55:01;102876.53;;;7.37;60.34
75036;BME280;64247;51.540;5.854;2023-04-03T08:57:05;102870.88;;;7.38;60.04
75036;BME280;64247;51.540;5.854;2023-04-03T08:59:14;102879.25;;;7.37;62.00
75036;BME280;64247;51.540;5.854;2023-04-03T09:01:33;102880.06;;;7.42;63.50
75036;BME280;64247;51.540;5.854;2023-04-03T09:03:39;102877.38;;;7.42;63.01
75036;BME280;64247;51.540;5.854;2023-04-03T09:05:53;102876.25;;;7.43;61.15
75036;BME280;64247;51.540;5.854;2023-04-03T09:08:21;102878.16;;;7.48;63.44
75036;BME280;64247;51.540;5.854;2023-04-03T09:10:42;102867.09;;;7.55;62.25
75036;BME280;64247;51.540;5.854;2023-04-03T09:12:51;102868.44;;;7.68;60.31
75036;BME280;64247;51.540;5.854;2023-04-03T09:15:14;102877.09;;;7.75;57.44
75036;BME280;64247;51.540;5.854;2023-04-03T09:17:38;102878.44;;;7.83;59.35
75036;BME280;64247;51.540;5.854;2023-04-03T09:22:52;102875.19;;;7.91;55.71
75036;BME280;64247;51.540;5.854;2023-04-03T09:27:36;102880.59;;;8.01;56.80
75036;BME280;64247;51.540;5.854;2023-04-03T09:29:42;102878.97;;;8.11;55.40
75036;BME280;64247;51.540;5.854;2023-04-03T09:31:48;102878.38;;;8.14;51.25
75036;BME280;64247;51.540;5.854;2023-04-03T09:33:57;102882.97;;;8.18;51.72
75036;BME280;64247;51.540;5.854;2023-04-03T09:36:03;102875.97;;;8.12;49.75
75036;BME280;64247;51.540;5.854;2023-04-03T09:38:30;102868.13;;;8.05;48.96
75036;BME280;64247;51.540;5.854;2023-04-03T09:40:37;102873.81;;;8.04;48.62
75036;BME280;64247;51.540;5.854;2023-04-03T09:45:39;102867.59;;;8.08;47.17
75036;BME280;64247;51.540;5.854;2023-04-03T09:47:40;102871.09;;;8.14;47.45
75036;BME280;64247;51.540;5.854;2023-04-03T09:49:42;102872.16;;;8.18;48.07
75036;BME280;64247;51.540;5.854;2023-04-03T09:51:43;102864.81;;;8.34;49.62
75036;BME280;64247;51.540;5.854;2023-04-03T09:53:45;102863.44;;;8.42;49.38
75036;BME280;64247;51.540;5.854;2023-04-03T09:55:46;102861.28;;;8.49;46.49
75036;BME280;64247;51.540;5.854;2023-04-03T09:57:47;102852.31;;;8.54;47.50
75036;BME280;64247;51.540;5.854;2023-04-03T10:00:01;102859.06;;;8.57;46.81
75036;BME280;64247;51.540;5.854;2023-04-03T10:02:51;102860.69;;;8.58;43.89
75036;BME280;64247;51.540;5.854;2023-04-03T10:04:56;102854.19;;;8.59;46.03
75036;BME280;64247;51.540;5.854;2023-04-03T10:06:57;102853.66;;;8.62;44.37
75036;BME280;64247;51.540;5.854;2023-04-03T10:09:15;102850.94;;;8.62;44.29
75036;BME280;64247;51.540;5.854;2023-04-03T10:11:20;102854.41;;;8.67;43.59
75036;BME280;64247;51.540;5.854;2023-04-03T10:13:22;102849.81;;;8.73;43.28
75036;BME280;64247;51.540;5.854;2023-04-03T10:15:23;102850.91;;;8.67;42.68
75036;BME280;64247;51.540;5.854;2023-04-03T10:17:51;102850.09;;;8.71;45.27
75036;BME280;64247;51.540;5.854;2023-04-03T10:29:00;102830.13;;;8.57;44.21
75036;BME280;64247;51.540;5.854;2023-04-03T10:31:23;102818.44;;;8.67;41.32
75036;BME280;64247;51.540;5.854;2023-04-03T10:34:39;102818.97;;;8.64;45.00
75036;BME280;64247;51.540;5.854;2023-04-03T10:39:43;102819.72;;;8.75;42.71
75036;BME280;64247;51.540;5.854;2023-04-03T10:45:53;102811.09;;;8.73;41.70
75036;BME280;64247;51.540;5.854;2023-04-03T10:48:24;102817.59;;;8.71;41.36
75036;BME280;64247;51.540;5.854;2023-04-03T10:50:52;102816.53;;;8.67;38.31
75036;BME280;64247;51.540;5.854;2023-04-03T10:57:04;102803.34;;;8.50;39.83
75036;BME280;64247;51.540;5.854;2023-04-03T11:00:36;102803.91;;;8.47;41.05
75036;BME280;64247;51.540;5.854;2023-04-03T11:02:27;102783.78;;;8.69;43.13
75036;BME280;64247;51.540;5.854;2023-04-03T11:04:35;102784.16;;;8.92;43.56
75036;BME280;64247;51.540;5.854;2023-04-03T11:06:47;102777.97;;;9.21;40.11
75036;BME280;64247;51.540;5.854;2023-04-03T11:09:10;102778.28;;;9.19;43.10
75036;BME280;64247;51.540;5.854;2023-04-03T11:11:25;102784.44;;;9.25;40.93
75036;BME280;64247;51.540;5.854;2023-04-03T11:13:38;102788.25;;;9.24;39.45
75036;BME280;64247;51.540;5.854;2023-04-03T11:15:44;102780.44;;;9.17;41.15
75036;BME280;64247;51.540;5.854;2023-04-03T11:18:02;102788.22;;;9.29;40.42
75036;BME280;64247;51.540;5.854;2023-04-03T11:20:19;102792.34;;;9.50;41.64
75036;BME280;64247;51.540;5.854;2023-04-03T11:22:33;102775.41;;;9.64;40.10
75036;BME280;64247;51.540;5.854;2023-04-03T11:24:43;102777.88;;;9.60;39.13
75036;BME280;64247;51.540;5.854;2023-04-03T11:26:54;102783.22;;;9.41;37.70
75036;BME280;64247;51.540;5.854;2023-04-03T11:29:00;102773.69;;;9.49;39.96
75036;BME280;64247;51.540;5.854;2023-04-03T11:34:34;102777.00;;;9.41;37.90